sensor_id;sensor_type;location;lat;lon;timestamp;P1;durP1;ratioP1;P2;durP2;ratioP2
20458;SDS011;10388;52.314;7.938;2024-02-21T00:01:15;16.50;;;9.43;;
20458;SDS011;10388;52.314;7.938;2024-02-21T00:03:50;18.47;;;10.23;;
20458;SDS011;10388;52.314;7.938;2024-02-21T00:06:20;16.57;;;9.63;;
20458;SDS011;10388;52.314;7.938;2024-02-21T00:08:51;17.70;;;9.97;;
20458;SDS011;10388;52.314;7.938;2024-02-21T00:11:21;15.70;;;10.00;;
20458;SDS011;10388;52.314;7.938;2024-02-21T00:13:52;16.80;;;9.60;;
20458;SDS011;10388;52.314;7.938;2024-02-21T00:16:22;17.03;;;10.77;;
20458;SDS011;10388;52.314;7.938;2024-02-21T00:18:53;14.07;;;9.07;;
20458;SDS011;10388;52.314;7.938;2024-02-21T00:21:23;15.83;;;9.60;;
20458;SDS011;10388;52.314;7.938;2024-02-21T00:23:54;19.17;;;10.23;;
20458;SDS011;10388;52.314;7.938;2024-02-21T00:26:25;15.77;;;9.80;;
20458;SDS011;10388;52.314;7.938;2024-02-21T00:28:55;17.57;;;9.90;;
20458;SDS011;10388;52.314;7.938;2024-02-21T00:31:26;14.90;;;9.93;;
20458;SDS011;10388;52.314;7.938;2024-02-21T00:33:57;17.53;;;9.20;;
20458;SDS011;10388;52.314;7.938;2024-02-21T00:36:28;17.47;;;9.10;;
20458;SDS011;10388;52.314;7.938;2024-02-21T00:38:58;14.33;;;9.80;;
20458;SDS011;10388;52.314;7.938;2024-02-21T00:41:29;18.07;;;9.20;;
20458;SDS011;10388;52.314;7.938;2024-02-21T00:43:59;14.13;;;9.27;;
20458;SDS011;10388;52.314;7.938;2024-02-21T00:46:30;14.93;;;9.40;;
20458;SDS011;10388;52.314;7.938;2024-02-21T00:49:00;16.77;;;8.83;;
20458;SDS011;10388;52.314;7.938;2024-02-21T00:51:31;15.87;;;9.97;;
20458;SDS011;10388;52.314;7.938;2024-02-21T00:54:01;15.37;;;9.57;;
20458;SDS011;10388;52.314;7.938;2024-02-21T00:56:32;13.07;;;9.13;;
20458;SDS011;10388;52.314;7.938;2024-02-21T00:59:03;14.77;;;9.17;;
20458;SDS011;10388;52.314;7.938;2024-02-21T01:01:33;19.00;;;9.00;;
20458;SDS011;10388;52.314;7.938;2024-02-21T01:04:04;11.60;;;8.73;;
20458;SDS011;10388;52.314;7.938;2024-02-21T01:06:34;14.97;;;8.60;;
20458;SDS011;10388;52.314;7.938;2024-02-21T01:09:05;16.70;;;9.33;;
20458;SDS011;10388;52.314;7.938;2024-02-21T01:11:35;15.90;;;9.10;;
20458;SDS011;10388;52.314;7.938;2024-02-21T01:14:06;13.43;;;8.30;;
20458;SDS011;10388;52.314;7.938;2024-02-21T01:16:36;16.43;;;9.40;;
20458;SDS011;10388;52.314;7.938;2024-02-21T01:19:07;14.40;;;8.77;;
20458;SDS011;10388;52.314;7.938;2024-02-21T01:21:38;16.47;;;9.63;;
20458;SDS011;10388;52.314;7.938;2024-02-21T01:24:08;12.83;;;8.20;;
20458;SDS011;10388;52.314;7.938;2024-02-21T01:26:39;14.33;;;8.77;;
20458;SDS011;10388;52.314;7.938;2024-02-21T01:29:10;11.83;;;8.47;;
20458;SDS011;10388;52.314;7.938;2024-02-21T01:31:41;13.27;;;8.43;;
20458;SDS011;10388;52.314;7.938;2024-02-21T01:34:11;14.20;;;9.23;;
20458;SDS011;10388;52.314;7.938;2024-02-21T01:36:42;19.33;;;8.67;;
20458;SDS011;10388;52.314;7.938;2024-02-21T01:39:16;13.97;;;8.17;;
20458;SDS011;10388;52.314;7.938;2024-02-21T01:41:47;20.83;;;8.17;;
20458;SDS011;10388;52.314;7.938;2024-02-21T01:44:18;18.50;;;8.87;;
20458;SDS011;10388;52.314;7.938;2024-02-21T01:46:49;11.90;;;8.23;;
20458;SDS011;10388;52.314;7.938;2024-02-21T01:49:21;13.00;;;7.97;;
20458;SDS011;10388;52.314;7.938;2024-02-21T01:51:52;20.13;;;9.47;;
20458;SDS011;10388;52.314;7.938;2024-02-21T01:54:23;13.80;;;7.83;;
20458;SDS011;10388;52.314;7.938;2024-02-21T01:56:58;13.53;;;8.33;;
20458;SDS011;10388;52.314;7.938;2024-02-21T01:59:29;16.83;;;8.67;;
20458;SDS011;10388;52.314;7.938;2024-02-21T02:02:00;13.10;;;8.17;;
20458;SDS011;10388;52.314;7.938;2024-02-21T02:04:32;17.07;;;7.87;;
20458;SDS011;10388;52.314;7.938;2024-02-21T02:07:03;12.93;;;8.43;;
20458;SDS011;10388;52.314;7.938;2024-02-21T02:09:37;13.27;;;8.40;;
20458;SDS011;10388;52.314;7.938;2024-02-21T02:12:08;16.33;;;9.10;;
20458;SDS011;10388;52.314;7.938;2024-02-21T02:14:39;16.00;;;9.40;;
20458;SDS011;10388;52.314;7.938;2024-02-21T02:17:10;14.50;;;8.43;;
20458;SDS011;10388;52.314;7.938;2024-02-21T02:19:40;18.00;;;8.87;;
20458;SDS011;10388;52.314;7.938;2024-02-21T02:22:13;15.03;;;8.97;;
20458;SDS011;10388;52.314;7.938;2024-02-21T02:24:48;15.47;;;8.00;;
20458;SDS011;10388;52.314;7.938;2024-02-21T02:27:19;13.07;;;8.40;;
20458;SDS011;10388;52.314;7.938;2024-02-21T02:29:50;15.60;;;8.93;;
20458;SDS011;10388;52.314;7.938;2024-02-21T02:32:22;11.07;;;8.60;;
20458;SDS011;10388;52.314;7.938;2024-02-21T02:34:55;17.07;;;9.10;;
20458;SDS011;10388;52.314;7.938;2024-02-21T02:37:26;14.03;;;8.60;;
20458;SDS011;10388;52.314;7.938;2024-02-21T02:39:57;13.90;;;8.50;;
20458;SDS011;10388;52.314;7.938;2024-02-21T02:42:27;12.73;;;9.17;;
20458;SDS011;10388;52.314;7.938;2024-02-21T02:44:58;11.63;;;8.30;;
20458;SDS011;10388;52.314;7.938;2024-02-21T02:47:29;12.87;;;8.63;;
20458;SDS011;10388;52.314;7.938;2024-02-21T02:49:59;13.13;;;9.27;;
20458;SDS011;10388;52.314;7.938;2024-02-21T02:52:30;14.53;;;9.07;;
20458;SDS011;10388;52.314;7.938;2024-02-21T02:55:04;15.67;;;9.50;;
20458;SDS011;10388;52.314;7.938;2024-02-21T02:57:36;14.03;;;8.13;;
20458;SDS011;10388;52.314;7.938;2024-02-21T03:00:07;16.53;;;9.57;;
20458;SDS011;10388;52.314;7.938;2024-02-21T03:02:42;11.67;;;8.50;;
20458;SDS011;10388;52.314;7.938;2024-02-21T03:05:20;12.67;;;8.13;;
20458;SDS011;10388;52.314;7.938;2024-02-21T03:07:51;15.77;;;8.83;;
20458;SDS011;10388;52.314;7.938;2024-02-21T03:10:22;13.20;;;8.93;;
20458;SDS011;10388;52.314;7.938;2024-02-21T03:12:53;15.47;;;8.63;;
20458;SDS011;10388;52.314;7.938;2024-02-21T03:15:24;14.53;;;9.50;;
20458;SDS011;10388;52.314;7.938;2024-02-21T03:17:54;23.47;;;10.47;;
20458;SDS011;10388;52.314;7.938;2024-02-21T03:20:25;13.67;;;8.37;;
20458;SDS011;10388;52.314;7.938;2024-02-21T03:22:56;13.03;;;8.63;;
20458;SDS011;10388;52.314;7.938;2024-02-21T03:25:26;15.17;;;8.83;;
20458;SDS011;10388;52.314;7.938;2024-02-21T03:28:00;18.83;;;9.00;;
20458;SDS011;10388;52.314;7.938;2024-02-21T03:30:31;16.37;;;9.13;;
20458;SDS011;10388;52.314;7.938;2024-02-21T03:33:03;17.63;;;9.87;;
20458;SDS011;10388;52.314;7.938;2024-02-21T03:35:35;12.83;;;8.40;;
20458;SDS011;10388;52.314;7.938;2024-02-21T03:38:05;12.97;;;8.30;;
20458;SDS011;10388;52.314;7.938;2024-02-21T03:40:39;14.77;;;8.37;;
20458;SDS011;10388;52.314;7.938;2024-02-21T03:43:09;15.73;;;9.70;;
20458;SDS011;10388;52.314;7.938;2024-02-21T03:45:40;16.30;;;9.63;;
20458;SDS011;10388;52.314;7.938;2024-02-21T03:48:10;14.30;;;8.20;;
20458;SDS011;10388;52.314;7.938;2024-02-21T03:50:41;14.30;;;9.50;;
20458;SDS011;10388;52.314;7.938;2024-02-21T03:53:12;13.50;;;8.40;;
20458;SDS011;10388;52.314;7.938;2024-02-21T03:55:42;13.73;;;9.47;;
20458;SDS011;10388;52.314;7.938;2024-02-21T03:58:13;13.53;;;8.43;;
20458;SDS011;10388;52.314;7.938;2024-02-21T04:00:44;13.47;;;9.10;;
20458;SDS011;10388;52.314;7.938;2024-02-21T04:03:14;13.50;;;8.73;;
20458;SDS011;10388;52.314;7.938;2024-02-21T04:05:45;17.97;;;9.47;;
20458;SDS011;10388;52.314;7.938;2024-02-21T04:08:15;16.40;;;9.13;;
20458;SDS011;10388;52.314;7.938;2024-02-21T04:10:46;15.60;;;9.33;;
20458;SDS011;10388;52.314;7.938;2024-02-21T04:13:20;14.27;;;9.77;;
20458;SDS011;10388;52.314;7.938;2024-02-21T04:15:52;16.60;;;9.37;;
20458;SDS011;10388;52.314;7.938;2024-02-21T04:18:23;14.80;;;9.17;;
20458;SDS011;10388;52.314;7.938;2024-02-21T04:20:54;13.80;;;8.83;;
20458;SDS011;10388;52.314;7.938;2024-02-21T04:23:24;16.07;;;9.63;;
20458;SDS011;10388;52.314;7.938;2024-02-21T04:25:55;14.90;;;9.13;;
20458;SDS011;10388;52.314;7.938;2024-02-21T04:28:28;16.37;;;10.57;;
20458;SDS011;10388;52.314;7.938;2024-02-21T04:30:59;18.70;;;9.97;;
20458;SDS011;10388;52.314;7.938;2024-02-21T04:33:30;15.80;;;9.90;;
20458;SDS011;10388;52.314;7.938;2024-02-21T04:36:01;17.43;;;10.77;;
20458;SDS011;10388;52.314;7.938;2024-02-21T04:38:32;16.37;;;9.73;;
20458;SDS011;10388;52.314;7.938;2024-02-21T04:41:09;21.90;;;11.80;;
20458;SDS011;10388;52.314;7.938;2024-02-21T04:43:40;15.33;;;10.20;;
20458;SDS011;10388;52.314;7.938;2024-02-21T04:46:10;17.90;;;10.77;;
20458;SDS011;10388;52.314;7.938;2024-02-21T04:48:41;18.17;;;9.67;;
20458;SDS011;10388;52.314;7.938;2024-02-21T04:51:12;18.63;;;10.50;;
20458;SDS011;10388;52.314;7.938;2024-02-21T04:53:43;20.13;;;11.13;;
20458;SDS011;10388;52.314;7.938;2024-02-21T04:56:18;17.27;;;10.33;;
20458;SDS011;10388;52.314;7.938;2024-02-21T04:58:48;16.43;;;10.80;;
20458;SDS011;10388;52.314;7.938;2024-02-21T05:01:19;15.47;;;10.10;;
20458;SDS011;10388;52.314;7.938;2024-02-21T05:03:53;16.53;;;10.20;;
20458;SDS011;10388;52.314;7.938;2024-02-21T05:06:24;19.97;;;11.20;;
20458;SDS011;10388;52.314;7.938;2024-02-21T05:08:55;20.90;;;11.40;;
20458;SDS011;10388;52.314;7.938;2024-02-21T05:11:27;16.90;;;10.67;;
20458;SDS011;10388;52.314;7.938;2024-02-21T05:13:58;23.70;;;10.97;;
20458;SDS011;10388;52.314;7.938;2024-02-21T05:16:29;16.10;;;10.63;;
20458;SDS011;10388;52.314;7.938;2024-02-21T05:19:00;17.97;;;10.80;;
20458;SDS011;10388;52.314;7.938;2024-02-21T05:21:30;17.63;;;10.57;;
20458;SDS011;10388;52.314;7.938;2024-02-21T05:24:01;17.77;;;9.97;;
20458;SDS011;10388;52.314;7.938;2024-02-21T05:26:35;19.23;;;9.97;;
20458;SDS011;10388;52.314;7.938;2024-02-21T05:29:05;14.83;;;9.50;;
20458;SDS011;10388;52.314;7.938;2024-02-21T05:34:22;16.30;;;10.43;;
20458;SDS011;10388;52.314;7.938;2024-02-21T05:36:53;15.03;;;10.13;;
20458;SDS011;10388;52.314;7.938;2024-02-21T05:39:24;15.80;;;9.43;;
20458;SDS011;10388;52.314;7.938;2024-02-21T05:41:55;15.27;;;9.73;;
20458;SDS011;10388;52.314;7.938;2024-02-21T05:44:25;15.93;;;9.70;;
20458;SDS011;10388;52.314;7.938;2024-02-21T05:47:08;16.33;;;9.00;;
20458;SDS011;10388;52.314;7.938;2024-02-21T05:49:40;13.73;;;9.17;;
20458;SDS011;10388;52.314;7.938;2024-02-21T05:52:10;17.07;;;9.07;;
20458;SDS011;10388;52.314;7.938;2024-02-21T05:54:46;16.40;;;9.37;;
20458;SDS011;10388;52.314;7.938;2024-02-21T05:57:17;13.00;;;8.70;;
20458;SDS011;10388;52.314;7.938;2024-02-21T05:59:48;14.33;;;9.07;;
20458;SDS011;10388;52.314;7.938;2024-02-21T06:02:22;15.70;;;8.90;;
20458;SDS011;10388;52.314;7.938;2024-02-21T06:04:53;21.27;;;9.13;;
20458;SDS011;10388;52.314;7.938;2024-02-21T06:07:23;17.73;;;9.63;;
20458;SDS011;10388;52.314;7.938;2024-02-21T06:09:54;13.73;;;8.33;;
20458;SDS011;10388;52.314;7.938;2024-02-21T06:12:25;13.23;;;8.13;;
20458;SDS011;10388;52.314;7.938;2024-02-21T06:14:55;13.53;;;9.03;;
20458;SDS011;10388;52.314;7.938;2024-02-21T06:17:35;12.30;;;8.00;;
20458;SDS011;10388;52.314;7.938;2024-02-21T06:20:06;15.73;;;9.63;;
20458;SDS011;10388;52.314;7.938;2024-02-21T06:22:46;14.80;;;8.63;;
20458;SDS011;10388;52.314;7.938;2024-02-21T06:25:16;14.60;;;8.70;;
20458;SDS011;10388;52.314;7.938;2024-02-21T06:27:47;12.23;;;7.97;;
20458;SDS011;10388;52.314;7.938;2024-02-21T06:30:18;14.17;;;8.37;;
20458;SDS011;10388;52.314;7.938;2024-02-21T06:32:48;15.13;;;8.67;;
20458;SDS011;10388;52.314;7.938;2024-02-21T06:35:19;12.50;;;7.87;;
20458;SDS011;10388;52.314;7.938;2024-02-21T06:37:59;12.57;;;8.17;;
20458;SDS011;10388;52.314;7.938;2024-02-21T06:40:32;13.93;;;7.60;;
20458;SDS011;10388;52.314;7.938;2024-02-21T06:43:09;12.73;;;7.23;;
20458;SDS011;10388;52.314;7.938;2024-02-21T06:45:42;13.53;;;7.90;;
20458;SDS011;10388;52.314;7.938;2024-02-21T06:48:13;16.33;;;7.60;;
20458;SDS011;10388;52.314;7.938;2024-02-21T06:51:01;10.40;;;7.23;;
20458;SDS011;10388;52.314;7.938;2024-02-21T06:53:33;10.07;;;7.50;;
20458;SDS011;10388;52.314;7.938;2024-02-21T06:56:04;13.73;;;8.17;;
20458;SDS011;10388;52.314;7.938;2024-02-21T06:58:37;12.90;;;7.97;;
20458;SDS011;10388;52.314;7.938;2024-02-21T07:01:08;14.53;;;7.73;;
20458;SDS011;10388;52.314;7.938;2024-02-21T07:03:41;11.90;;;7.60;;
20458;SDS011;10388;52.314;7.938;2024-02-21T07:06:21;10.40;;;7.53;;
20458;SDS011;10388;52.314;7.938;2024-02-21T07:08:52;12.90;;;7.33;;
20458;SDS011;10388;52.314;7.938;2024-02-21T07:11:28;11.77;;;7.30;;
20458;SDS011;10388;52.314;7.938;2024-02-21T07:13:59;13.10;;;7.70;;
20458;SDS011;10388;52.314;7.938;2024-02-21T07:16:33;10.93;;;7.73;;
20458;SDS011;10388;52.314;7.938;2024-02-21T07:19:03;13.53;;;8.20;;
20458;SDS011;10388;52.314;7.938;2024-02-21T07:21:34;12.87;;;8.33;;
20458;SDS011;10388;52.314;7.938;2024-02-21T07:24:08;15.23;;;7.93;;
20458;SDS011;10388;52.314;7.938;2024-02-21T07:26:42;10.33;;;6.97;;
20458;SDS011;10388;52.314;7.938;2024-02-21T07:29:13;10.37;;;6.97;;
20458;SDS011;10388;52.314;7.938;2024-02-21T07:31:44;12.90;;;7.17;;
20458;SDS011;10388;52.314;7.938;2024-02-21T07:34:14;10.40;;;6.47;;
20458;SDS011;10388;52.314;7.938;2024-02-21T07:36:45;11.60;;;7.33;;
20458;SDS011;10388;52.314;7.938;2024-02-21T07:39:30;9.90;;;6.43;;
20458;SDS011;10388;52.314;7.938;2024-02-21T07:42:09;10.17;;;6.87;;
20458;SDS011;10388;52.314;7.938;2024-02-21T07:44:40;10.10;;;6.83;;
20458;SDS011;10388;52.314;7.938;2024-02-21T07:47:10;11.30;;;7.53;;
20458;SDS011;10388;52.314;7.938;2024-02-21T07:49:43;11.53;;;6.73;;
20458;SDS011;10388;52.314;7.938;2024-02-21T07:52:14;8.90;;;6.40;;
20458;SDS011;10388;52.314;7.938;2024-02-21T07:54:45;11.37;;;6.17;;
20458;SDS011;10388;52.314;7.938;2024-02-21T07:57:15;9.93;;;6.20;;
20458;SDS011;10388;52.314;7.938;2024-02-21T07:59:46;11.27;;;6.33;;
20458;SDS011;10388;52.314;7.938;2024-02-21T08:02:17;13.00;;;6.13;;
20458;SDS011;10388;52.314;7.938;2024-02-21T08:04:47;15.67;;;6.53;;
20458;SDS011;10388;52.314;7.938;2024-02-21T08:07:18;10.23;;;5.97;;
20458;SDS011;10388;52.314;7.938;2024-02-21T08:09:49;10.40;;;6.23;;
20458;SDS011;10388;52.314;7.938;2024-02-21T08:12:19;10.20;;;6.53;;
20458;SDS011;10388;52.314;7.938;2024-02-21T08:14:50;12.00;;;6.00;;
20458;SDS011;10388;52.314;7.938;2024-02-21T08:17:20;11.03;;;6.03;;
20458;SDS011;10388;52.314;7.938;2024-02-21T08:19:51;9.67;;;5.77;;
20458;SDS011;10388;52.314;7.938;2024-02-21T08:22:21;8.73;;;5.90;;
20458;SDS011;10388;52.314;7.938;2024-02-21T08:24:52;11.47;;;6.10;;
20458;SDS011;10388;52.314;7.938;2024-02-21T08:27:23;9.60;;;5.97;;
20458;SDS011;10388;52.314;7.938;2024-02-21T08:29:53;12.10;;;6.33;;
20458;SDS011;10388;52.314;7.938;2024-02-21T08:32:24;6.87;;;5.10;;
20458;SDS011;10388;52.314;7.938;2024-02-21T08:34:54;6.70;;;5.43;;
20458;SDS011;10388;52.314;7.938;2024-02-21T08:37:26;7.90;;;5.47;;
20458;SDS011;10388;52.314;7.938;2024-02-21T08:39:57;8.03;;;5.33;;
20458;SDS011;10388;52.314;7.938;2024-02-21T08:42:28;8.27;;;5.60;;
20458;SDS011;10388;52.314;7.938;2024-02-21T08:44:58;9.13;;;6.20;;
20458;SDS011;10388;52.314;7.938;2024-02-21T08:47:29;9.80;;;5.67;;
20458;SDS011;10388;52.314;7.938;2024-02-21T08:49:59;8.27;;;5.50;;
20458;SDS011;10388;52.314;7.938;2024-02-21T08:52:30;9.93;;;5.93;;
20458;SDS011;10388;52.314;7.938;2024-02-21T08:55:00;10.03;;;5.73;;
20458;SDS011;10388;52.314;7.938;2024-02-21T08:57:31;9.23;;;5.73;;
20458;SDS011;10388;52.314;7.938;2024-02-21T09:00:06;9.63;;;5.77;;
20458;SDS011;10388;52.314;7.938;2024-02-21T09:02:42;10.23;;;6.67;;
20458;SDS011;10388;52.314;7.938;2024-02-21T09:05:13;9.03;;;5.90;;
20458;SDS011;10388;52.314;7.938;2024-02-21T09:07:44;10.17;;;5.97;;
20458;SDS011;10388;52.314;7.938;2024-02-21T09:10:14;11.43;;;6.53;;
20458;SDS011;10388;52.314;7.938;2024-02-21T09:12:45;11.77;;;6.10;;
20458;SDS011;10388;52.314;7.938;2024-02-21T09:15:15;13.67;;;6.07;;
20458;SDS011;10388;52.314;7.938;2024-02-21T09:17:46;7.73;;;6.20;;
20458;SDS011;10388;52.314;7.938;2024-02-21T09:20:16;10.60;;;6.30;;
20458;SDS011;10388;52.314;7.938;2024-02-21T09:22:48;10.83;;;6.50;;
20458;SDS011;10388;52.314;7.938;2024-02-21T09:25:18;9.70;;;6.03;;
20458;SDS011;10388;52.314;7.938;2024-02-21T09:27:49;9.43;;;5.97;;
20458;SDS011;10388;52.314;7.938;2024-02-21T09:30:22;9.30;;;5.60;;
20458;SDS011;10388;52.314;7.938;2024-02-21T09:32:52;8.20;;;5.73;;
20458;SDS011;10388;52.314;7.938;2024-02-21T09:35:23;9.63;;;5.70;;
20458;SDS011;10388;52.314;7.938;2024-02-21T09:37:56;8.97;;;5.23;;
20458;SDS011;10388;52.314;7.938;2024-02-21T09:40:26;9.53;;;5.30;;
20458;SDS011;10388;52.314;7.938;2024-02-21T09:43:06;12.73;;;6.00;;
20458;SDS011;10388;52.314;7.938;2024-02-21T09:45:37;7.57;;;4.80;;
20458;SDS011;10388;52.314;7.938;2024-02-21T09:50:59;8.30;;;4.80;;
20458;SDS011;10388;52.314;7.938;2024-02-21T09:53:32;7.13;;;4.50;;
20458;SDS011;10388;52.314;7.938;2024-02-21T09:56:07;7.60;;;4.23;;
20458;SDS011;10388;52.314;7.938;2024-02-21T09:58:38;8.40;;;4.83;;
20458;SDS011;10388;52.314;7.938;2024-02-21T10:01:11;9.73;;;4.33;;
20458;SDS011;10388;52.314;7.938;2024-02-21T10:03:41;6.10;;;4.03;;
20458;SDS011;10388;52.314;7.938;2024-02-21T10:06:13;8.27;;;4.47;;
20458;SDS011;10388;52.314;7.938;2024-02-21T10:08:46;10.03;;;4.70;;
20458;SDS011;10388;52.314;7.938;2024-02-21T10:11:25;5.10;;;4.10;;
20458;SDS011;10388;52.314;7.938;2024-02-21T10:14:02;9.03;;;4.70;;
20458;SDS011;10388;52.314;7.938;2024-02-21T10:16:35;12.00;;;5.77;;
20458;SDS011;10388;52.314;7.938;2024-02-21T10:19:15;8.97;;;5.10;;
20458;SDS011;10388;52.314;7.938;2024-02-21T10:22:07;8.20;;;4.57;;
20458;SDS011;10388;52.314;7.938;2024-02-21T10:24:38;29.93;;;6.33;;
20458;SDS011;10388;52.314;7.938;2024-02-21T10:27:11;6.57;;;4.23;;
20458;SDS011;10388;52.314;7.938;2024-02-21T10:29:41;8.20;;;3.67;;
20458;SDS011;10388;52.314;7.938;2024-02-21T10:32:13;5.83;;;3.97;;
20458;SDS011;10388;52.314;7.938;2024-02-21T10:34:44;9.87;;;4.07;;
20458;SDS011;10388;52.314;7.938;2024-02-21T10:37:15;4.30;;;3.50;;
20458;SDS011;10388;52.314;7.938;2024-02-21T10:39:46;11.00;;;4.00;;
20458;SDS011;10388;52.314;7.938;2024-02-21T10:42:16;8.17;;;4.07;;
20458;SDS011;10388;52.314;7.938;2024-02-21T10:44:51;7.87;;;3.70;;
20458;SDS011;10388;52.314;7.938;2024-02-21T10:47:22;6.97;;;3.27;;
20458;SDS011;10388;52.314;7.938;2024-02-21T10:49:57;5.17;;;3.43;;
20458;SDS011;10388;52.314;7.938;2024-02-21T10:55:13;5.13;;;3.37;;
20458;SDS011;10388;52.314;7.938;2024-02-21T10:57:53;10.50;;;3.83;;
20458;SDS011;10388;52.314;7.938;2024-02-21T11:00:24;7.13;;;3.60;;
20458;SDS011;10388;52.314;7.938;2024-02-21T11:03:00;4.93;;;3.40;;
20458;SDS011;10388;52.314;7.938;2024-02-21T11:05:30;5.70;;;3.90;;
20458;SDS011;10388;52.314;7.938;2024-02-21T11:08:03;10.67;;;4.57;;
20458;SDS011;10388;52.314;7.938;2024-02-21T11:10:36;6.03;;;4.37;;
20458;SDS011;10388;52.314;7.938;2024-02-21T11:13:07;6.67;;;4.20;;
20458;SDS011;10388;52.314;7.938;2024-02-21T11:15:38;5.47;;;4.10;;
20458;SDS011;10388;52.314;7.938;2024-02-21T11:18:09;7.77;;;4.57;;
20458;SDS011;10388;52.314;7.938;2024-02-21T11:20:39;9.53;;;5.03;;
20458;SDS011;10388;52.314;7.938;2024-02-21T11:23:10;5.37;;;4.13;;
20458;SDS011;10388;52.314;7.938;2024-02-21T11:25:41;6.57;;;4.70;;
20458;SDS011;10388;52.314;7.938;2024-02-21T11:28:12;7.77;;;4.53;;
20458;SDS011;10388;52.314;7.938;2024-02-21T11:30:42;6.63;;;4.30;;
20458;SDS011;10388;52.314;7.938;2024-02-21T11:33:13;4.97;;;4.07;;
20458;SDS011;10388;52.314;7.938;2024-02-21T11:35:44;6.43;;;4.73;;
20458;SDS011;10388;52.314;7.938;2024-02-21T11:38:16;9.30;;;5.07;;
20458;SDS011;10388;52.314;7.938;2024-02-21T11:40:46;5.83;;;4.60;;
20458;SDS011;10388;52.314;7.938;2024-02-21T11:43:17;7.67;;;5.23;;
20458;SDS011;10388;52.314;7.938;2024-02-21T11:45:48;6.73;;;4.93;;
20458;SDS011;10388;52.314;7.938;2024-02-21T11:48:18;19.13;;;6.20;;
20458;SDS011;10388;52.314;7.938;2024-02-21T11:50:53;17.43;;;6.53;;
20458;SDS011;10388;52.314;7.938;2024-02-21T11:53:24;6.57;;;5.00;;
20458;SDS011;10388;52.314;7.938;2024-02-21T11:56:00;8.70;;;5.03;;
20458;SDS011;10388;52.314;7.938;2024-02-21T11:58:31;15.63;;;7.27;;
20458;SDS011;10388;52.314;7.938;2024-02-21T12:01:02;8.60;;;5.30;;
20458;SDS011;10388;52.314;7.938;2024-02-21T12:03:34;5.87;;;4.87;;
20458;SDS011;10388;52.314;7.938;2024-02-21T12:06:08;6.43;;;4.93;;
20458;SDS011;10388;52.314;7.938;2024-02-21T12:08:43;7.07;;;4.80;;
20458;SDS011;10388;52.314;7.938;2024-02-21T12:11:18;4.80;;;4.30;;
20458;SDS011;10388;52.314;7.938;2024-02-21T12:14:01;6.10;;;4.67;;
20458;SDS011;10388;52.314;7.938;2024-02-21T12:16:34;4.13;;;3.57;;
20458;SDS011;10388;52.314;7.938;2024-02-21T12:19:08;5.73;;;3.57;;
20458;SDS011;10388;52.314;7.938;2024-02-21T12:21:39;4.07;;;3.17;;
20458;SDS011;10388;52.314;7.938;2024-02-21T12:24:14;5.27;;;3.10;;
20458;SDS011;10388;52.314;7.938;2024-02-21T12:26:45;4.30;;;2.73;;
20458;SDS011;10388;52.314;7.938;2024-02-21T12:29:16;6.53;;;3.00;;
20458;SDS011;10388;52.314;7.938;2024-02-21T12:31:47;3.20;;;2.60;;
20458;SDS011;10388;52.314;7.938;2024-02-21T12:34:18;4.37;;;2.73;;
20458;SDS011;10388;52.314;7.938;2024-02-21T12:36:49;5.33;;;3.43;;
20458;SDS011;10388;52.314;7.938;2024-02-21T12:39:19;3.30;;;2.97;;
20458;SDS011;10388;52.314;7.938;2024-02-21T12:41:50;7.87;;;3.50;;
20458;SDS011;10388;52.314;7.938;2024-02-21T12:44:20;6.63;;;3.33;;
20458;SDS011;10388;52.314;7.938;2024-02-21T12:46:51;7.30;;;3.20;;
20458;SDS011;10388;52.314;7.938;2024-02-21T12:49:23;8.80;;;4.33;;
20458;SDS011;10388;52.314;7.938;2024-02-21T12:51:54;5.97;;;3.57;;
20458;SDS011;10388;52.314;7.938;2024-02-21T12:54:25;8.70;;;4.60;;
20458;SDS011;10388;52.314;7.938;2024-02-21T12:56:56;7.87;;;3.90;;
20458;SDS011;10388;52.314;7.938;2024-02-21T12:59:27;8.13;;;4.33;;
20458;SDS011;10388;52.314;7.938;2024-02-21T13:01:58;7.30;;;3.73;;
20458;SDS011;10388;52.314;7.938;2024-02-21T13:04:28;9.07;;;3.80;;
20458;SDS011;10388;52.314;7.938;2024-02-21T13:06:59;5.87;;;3.80;;
20458;SDS011;10388;52.314;7.938;2024-02-21T13:09:30;13.33;;;4.43;;
20458;SDS011;10388;52.314;7.938;2024-02-21T13:12:00;9.13;;;4.80;;
20458;SDS011;10388;52.314;7.938;2024-02-21T13:14:32;13.70;;;4.37;;
20458;SDS011;10388;52.314;7.938;2024-02-21T13:17:04;11.27;;;4.53;;
20458;SDS011;10388;52.314;7.938;2024-02-21T13:19:35;8.57;;;4.53;;
20458;SDS011;10388;52.314;7.938;2024-02-21T13:22:05;6.70;;;4.10;;
20458;SDS011;10388;52.314;7.938;2024-02-21T13:24:37;9.40;;;4.77;;
20458;SDS011;10388;52.314;7.938;2024-02-21T13:27:07;9.17;;;4.67;;
20458;SDS011;10388;52.314;7.938;2024-02-21T13:29:38;8.93;;;4.93;;
20458;SDS011;10388;52.314;7.938;2024-02-21T13:32:08;8.73;;;4.60;;
20458;SDS011;10388;52.314;7.938;2024-02-21T13:34:39;7.17;;;4.87;;
20458;SDS011;10388;52.314;7.938;2024-02-21T13:37:09;10.43;;;5.30;;
20458;SDS011;10388;52.314;7.938;2024-02-21T13:39:40;7.00;;;4.20;;
20458;SDS011;10388;52.314;7.938;2024-02-21T13:42:10;9.07;;;4.67;;
20458;SDS011;10388;52.314;7.938;2024-02-21T13:44:42;8.30;;;4.93;;
20458;SDS011;10388;52.314;7.938;2024-02-21T13:47:13;8.17;;;5.07;;
20458;SDS011;10388;52.314;7.938;2024-02-21T13:49:44;6.27;;;4.37;;
20458;SDS011;10388;52.314;7.938;2024-02-21T13:52:15;6.53;;;4.43;;
20458;SDS011;10388;52.314;7.938;2024-02-21T13:54:45;8.27;;;4.57;;
20458;SDS011;10388;52.314;7.938;2024-02-21T13:57:17;5.97;;;4.30;;
20458;SDS011;10388;52.314;7.938;2024-02-21T13:59:48;5.27;;;3.97;;
20458;SDS011;10388;52.314;7.938;2024-02-21T14:02:18;7.97;;;4.87;;
20458;SDS011;10388;52.314;7.938;2024-02-21T14:04:49;8.20;;;4.03;;
20458;SDS011;10388;52.314;7.938;2024-02-21T14:07:20;5.37;;;3.87;;
20458;SDS011;10388;52.314;7.938;2024-02-21T14:09:50;6.37;;;4.47;;
20458;SDS011;10388;52.314;7.938;2024-02-21T14:12:21;6.13;;;4.13;;
20458;SDS011;10388;52.314;7.938;2024-02-21T14:14:51;9.23;;;4.90;;
20458;SDS011;10388;52.314;7.938;2024-02-21T14:17:22;45.37;;;9.77;;
20458;SDS011;10388;52.314;7.938;2024-02-21T14:19:52;21.77;;;6.63;;
20458;SDS011;10388;52.314;7.938;2024-02-21T14:22:23;7.60;;;4.40;;
20458;SDS011;10388;52.314;7.938;2024-02-21T14:24:54;7.17;;;4.80;;
20458;SDS011;10388;52.314;7.938;2024-02-21T14:27:26;6.83;;;4.60;;
20458;SDS011;10388;52.314;7.938;2024-02-21T14:29:57;9.77;;;5.40;;
20458;SDS011;10388;52.314;7.938;2024-02-21T14:32:27;5.80;;;4.23;;
20458;SDS011;10388;52.314;7.938;2024-02-21T14:34:58;6.97;;;4.90;;
20458;SDS011;10388;52.314;7.938;2024-02-21T14:37:28;6.00;;;4.63;;
20458;SDS011;10388;52.314;7.938;2024-02-21T14:39:59;5.30;;;4.20;;
20458;SDS011;10388;52.314;7.938;2024-02-21T14:42:30;6.57;;;4.77;;
20458;SDS011;10388;52.314;7.938;2024-02-21T14:45:01;8.17;;;4.93;;
20458;SDS011;10388;52.314;7.938;2024-02-21T14:47:34;9.90;;;4.63;;
20458;SDS011;10388;52.314;7.938;2024-02-21T14:50:05;8.17;;;5.00;;
20458;SDS011;10388;52.314;7.938;2024-02-21T14:52:37;9.07;;;4.40;;
20458;SDS011;10388;52.314;7.938;2024-02-21T14:55:08;9.63;;;4.17;;
20458;SDS011;10388;52.314;7.938;2024-02-21T14:57:39;7.80;;;4.43;;
20458;SDS011;10388;52.314;7.938;2024-02-21T15:00:10;9.07;;;4.43;;
20458;SDS011;10388;52.314;7.938;2024-02-21T15:02:41;6.13;;;3.83;;
20458;SDS011;10388;52.314;7.938;2024-02-21T15:05:12;7.17;;;3.50;;
20458;SDS011;10388;52.314;7.938;2024-02-21T15:07:44;7.43;;;3.90;;
20458;SDS011;10388;52.314;7.938;2024-02-21T15:10:14;6.37;;;3.50;;
20458;SDS011;10388;52.314;7.938;2024-02-21T15:12:45;6.33;;;3.67;;